createdAt,value
2022-08-12T00:00:36.831Z,2.00
2022-08-12T00:03:22.550Z,2.92
2022-08-12T00:06:09.037Z,2.88
2022-08-12T00:08:56.874Z,3.88
2022-08-12T00:11:44.377Z,2.50
2022-08-12T00:14:30.431Z,2.33
2022-08-12T00:17:17.696Z,2.58
2022-08-12T00:20:03.331Z,1.98
2022-08-12T00:22:58.641Z,2.63
2022-08-12T00:26:21.100Z,2.42
2022-08-12T00:29:02.099Z,2.45
2022-08-12T00:31:47.922Z,2.70
2022-08-12T00:34:35.481Z,2.20
2022-08-12T00:37:21.848Z,2.20
2022-08-12T00:40:11.621Z,4.60
2022-08-12T00:42:40.719Z,3.45
2022-08-12T00:45:09.640Z,2.17
2022-08-12T00:47:39.755Z,2.47
2022-08-12T00:50:17.871Z,2.00
2022-08-12T00:52:47.577Z,2.97
2022-08-12T00:55:17.161Z,3.15
2022-08-12T00:57:48.796Z,2.38
2022-08-12T01:00:19.886Z,4.45
2022-08-12T01:02:51.519Z,4.15
2022-08-12T01:05:42.194Z,1.65
2022-08-12T01:08:42.669Z,4.40
2022-08-12T01:11:31.796Z,3.08
2022-08-12T01:14:01.459Z,2.60
2022-08-12T01:16:29.799Z,3.03
2022-08-12T01:18:59.083Z,3.83
2022-08-12T01:21:55.768Z,5.32
2022-08-12T01:24:54.337Z,2.75
2022-08-12T01:27:23.574Z,3.00
2022-08-12T01:29:55.593Z,2.35
2022-08-12T01:32:24.950Z,2.65
2022-08-12T01:34:59.030Z,1.98
2022-08-12T01:37:27.530Z,4.63
2022-08-12T01:40:33.326Z,2.65
2022-08-12T01:42:52.047Z,2.92
2022-08-12T01:45:24.689Z,4.10
2022-08-12T01:48:06.569Z,2.55
2022-08-12T01:50:43.022Z,2.53
2022-08-12T01:53:15.914Z,2.42
2022-08-12T01:55:47.881Z,3.75
2022-08-12T01:58:29.962Z,3.35
2022-08-12T02:01:04.001Z,2.60
2022-08-12T02:04:07.636Z,4.00
2022-08-12T02:07:07.066Z,2.60
2022-08-12T02:10:49.913Z,3.38
2022-08-12T02:13:08.753Z,2.95
2022-08-12T02:15:45.741Z,3.33
2022-08-12T02:18:25.564Z,3.00
2022-08-12T02:21:01.460Z,4.10
2022-08-12T02:23:30.402Z,2.90
2022-08-12T02:26:02.383Z,2.47
2022-08-12T02:28:32.160Z,3.05
2022-08-12T02:31:05.328Z,2.78
2022-08-12T02:36:02.509Z,3.30
2022-08-12T02:38:31.397Z,2.75
2022-08-12T02:41:03.563Z,4.00
2022-08-12T02:43:38.345Z,2.78
2022-08-12T02:46:13.833Z,3.50
2022-08-12T02:48:47.735Z,3.42
2022-08-12T02:51:19.448Z,2.20
2022-08-12T02:54:02.958Z,3.30
2022-08-12T02:56:34.035Z,2.53
2022-08-12T02:59:03.666Z,2.22
2022-08-12T03:01:34.229Z,2.83
2022-08-12T03:04:05.405Z,3.08
2022-08-12T03:06:38.767Z,3.03
2022-08-12T03:09:12.452Z,3.35
2022-08-12T03:11:48.734Z,4.82
2022-08-12T03:14:19.044Z,3.88
2022-08-12T03:16:51.427Z,2.65
2022-08-12T03:19:21.730Z,3.28
2022-08-12T03:22:07.300Z,2.97
2022-08-12T03:24:42.461Z,4.70
2022-08-12T03:27:13.347Z,2.90
2022-08-12T03:29:49.912Z,3.63
2022-08-12T03:32:35.261Z,3.05
2022-08-12T03:35:07.420Z,2.88
2022-08-12T03:37:36.599Z,4.85
2022-08-12T03:40:08.758Z,5.07
2022-08-12T03:42:42.233Z,2.60
2022-08-12T03:45:51.724Z,5.38
2022-08-12T03:48:39.779Z,3.63
2022-08-12T03:51:26.325Z,3.05
2022-08-12T03:54:12.751Z,4.45
2022-08-12T03:56:58.486Z,2.40
2022-08-12T03:59:44.283Z,5.10
2022-08-12T04:02:15.747Z,3.92
2022-08-12T04:04:46.697Z,4.35
2022-08-12T04:07:16.314Z,4.20
2022-08-12T04:09:47.438Z,2.53
2022-08-12T04:12:33.618Z,4.45
2022-08-12T04:15:02.585Z,4.53
2022-08-12T04:17:33.604Z,3.75
2022-08-12T04:20:02.031Z,3.25
2022-08-12T04:22:31.092Z,3.75
2022-08-12T04:25:02.071Z,6.53
2022-08-12T04:27:32.250Z,4.22
2022-08-12T04:30:31.511Z,2.35
2022-08-12T04:32:53.801Z,4.88
2022-08-12T04:35:22.364Z,3.55
2022-08-12T04:37:59.718Z,6.55
2022-08-12T04:40:30.816Z,2.83
2022-08-12T04:43:01.073Z,2.60
2022-08-12T04:45:30.194Z,3.90
2022-08-12T04:48:00.017Z,5.20
2022-08-12T04:50:36.116Z,4.32
2022-08-12T04:53:06.500Z,5.22
2022-08-12T04:55:35.815Z,4.43
2022-08-12T04:58:03.903Z,4.13
2022-08-12T05:00:32.117Z,4.82
2022-08-12T05:03:01.678Z,2.70
2022-08-12T05:05:35.656Z,3.85
2022-08-12T05:08:07.968Z,5.07
2022-08-12T05:10:36.408Z,3.30
2022-08-12T05:13:11.085Z,2.75
2022-08-12T05:16:03.924Z,5.47
2022-08-12T05:18:29.681Z,5.25
2022-08-12T05:20:59.070Z,3.75
2022-08-12T05:23:27.964Z,4.13
2022-08-12T05:25:56.487Z,4.18
2022-08-12T05:28:26.147Z,2.55
2022-08-12T05:30:54.684Z,3.58
2022-08-12T05:33:31.554Z,2.60
2022-08-12T05:36:00.993Z,2.83
2022-08-12T05:38:46.494Z,3.67
2022-08-12T05:41:20.596Z,3.50
2022-08-12T05:43:50.787Z,3.00
2022-08-12T05:46:20.326Z,3.55
2022-08-12T05:48:49.422Z,3.95
2022-08-12T05:51:19.206Z,6.85
2022-08-12T05:53:48.311Z,4.45
2022-08-12T05:56:21.422Z,4.22
2022-08-12T05:58:51.535Z,4.05
2022-08-12T06:02:09.557Z,4.38
2022-08-12T06:04:09.276Z,3.80
2022-08-12T06:06:42.277Z,5.22
2022-08-12T06:09:11.432Z,3.50
2022-08-12T06:12:05.002Z,5.13
2022-08-12T06:14:35.172Z,5.40
2022-08-12T06:17:04.195Z,3.08
2022-08-12T06:20:27.398Z,4.03
2022-08-12T06:22:22.018Z,4.15
2022-08-12T06:24:51.022Z,3.42
2022-08-12T06:27:19.397Z,3.22
2022-08-12T06:30:08.202Z,4.50
2022-08-12T06:32:42.909Z,2.88
2022-08-12T06:35:25.074Z,3.47
2022-08-12T06:38:17.881Z,3.03
2022-08-12T06:41:16.435Z,6.43
2022-08-12T06:44:04.623Z,3.70
2022-08-12T06:46:36.653Z,4.82
2022-08-12T06:49:06.926Z,4.55
2022-08-12T06:51:35.484Z,4.55
2022-08-12T06:54:05.361Z,4.55
2022-08-12T06:57:02.515Z,4.30
2022-08-12T06:59:23.187Z,8.10
2022-08-12T07:01:52.064Z,2.65
2022-08-12T07:04:38.437Z,5.07
2022-08-12T07:07:09.329Z,5.03
2022-08-12T07:10:04.858Z,3.50
2022-08-12T07:12:28.750Z,6.10
2022-08-12T07:14:57.896Z,3.95
2022-08-12T07:17:26.187Z,6.68
2022-08-12T07:19:58.007Z,7.78
2022-08-12T07:22:28.678Z,6.15
2022-08-12T07:25:12.035Z,7.15
2022-08-12T07:27:42.319Z,3.90
2022-08-12T07:30:12.120Z,5.57
2022-08-12T07:32:40.463Z,4.32
2022-08-12T07:35:09.174Z,4.82
2022-08-12T07:37:42.861Z,7.18
2022-08-12T07:40:15.359Z,4.32
2022-08-12T07:42:44.294Z,4.65
2022-08-12T07:45:13.372Z,3.97
2022-08-12T07:47:43.420Z,4.25
2022-08-12T07:50:13.849Z,4.40
2022-08-12T07:52:43.889Z,4.45
2022-08-12T07:55:16.031Z,3.08
2022-08-12T07:57:57.789Z,5.73
2022-08-12T08:00:28.391Z,4.10
2022-08-12T08:02:56.923Z,5.50
2022-08-12T08:05:27.238Z,3.28
2022-08-12T08:08:01.884Z,6.68
2022-08-12T08:10:33.458Z,5.13
2022-08-12T08:13:05.158Z,4.97
2022-08-12T08:16:01.339Z,4.80
2022-08-12T08:18:27.604Z,3.20
2022-08-12T08:23:46.423Z,3.33
2022-08-12T08:26:20.588Z,4.72
2022-08-12T08:28:48.675Z,4.32
2022-08-12T08:31:16.770Z,3.50
2022-08-12T08:34:09.762Z,7.47
2022-08-12T08:36:33.090Z,4.13
2022-08-12T08:39:01.851Z,4.82
2022-08-12T08:42:16.430Z,6.15
2022-08-12T08:44:39.484Z,4.30
2022-08-12T08:47:08.517Z,5.15
2022-08-12T08:49:37.960Z,4.68
2022-08-12T08:52:07.665Z,4.40
2022-08-12T08:54:37.713Z,4.85
2022-08-12T08:57:09.167Z,6.88
2022-08-12T08:59:37.827Z,3.47
2022-08-12T09:02:07.761Z,3.97
2022-08-12T09:05:12.942Z,5.47
2022-08-12T09:07:51.400Z,3.75
2022-08-12T09:10:30.745Z,5.15
2022-08-12T09:13:23.653Z,6.00
2022-08-12T09:15:59.544Z,4.32
2022-08-12T09:18:33.421Z,5.57
2022-08-12T09:21:03.826Z,3.20
2022-08-12T09:23:59.322Z,4.60
2022-08-12T09:26:28.314Z,4.15
2022-08-12T09:29:00.639Z,4.40
2022-08-12T09:32:03.374Z,4.43
2022-08-12T09:34:29.520Z,3.90
2022-08-12T09:37:02.799Z,3.33
2022-08-12T09:40:06.573Z,5.10
2022-08-12T09:43:15.212Z,7.15
2022-08-12T09:46:11.357Z,4.13
2022-08-12T09:51:16.696Z,5.35
2022-08-12T09:54:34.838Z,4.95
2022-08-12T09:57:00.037Z,5.00
2022-08-12T10:00:15.621Z,5.47
2022-08-12T10:02:45.303Z,6.38
2022-08-12T10:05:09.243Z,4.50
2022-08-12T10:07:41.793Z,3.00
2022-08-12T10:10:23.023Z,4.03
2022-08-12T10:13:37.364Z,4.10
2022-08-12T10:16:05.235Z,4.28
2022-08-12T10:18:51.290Z,6.03
2022-08-12T10:21:23.339Z,4.20
2022-08-12T10:23:56.741Z,4.18
2022-08-12T10:26:43.249Z,3.35
2022-08-12T10:30:38.840Z,2.95
2022-08-12T10:32:52.689Z,3.75
2022-08-12T10:35:11.255Z,5.95
2022-08-12T10:38:38.346Z,2.60
2022-08-12T10:40:32.046Z,5.20
2022-08-12T10:43:18.587Z,4.13
2022-08-12T10:45:49.586Z,7.40
2022-08-12T10:48:33.730Z,4.30
2022-08-12T10:52:04.330Z,2.92
2022-08-12T10:54:00.775Z,5.05
2022-08-12T10:56:34.413Z,4.00
2022-08-12T10:59:05.153Z,5.50
2022-08-12T11:04:17.266Z,5.78
2022-08-12T11:04:41.425Z,4.25
2022-08-12T11:08:38.753Z,4.47
2022-08-12T11:10:03.214Z,3.40
2022-08-12T11:12:54.696Z,4.70
2022-08-12T11:15:33.206Z,4.05
2022-08-12T11:18:18.770Z,3.78
2022-08-12T11:20:48.984Z,4.80
2022-08-12T11:23:36.136Z,4.22
2022-08-12T11:26:07.931Z,3.22
2022-08-12T11:28:38.277Z,5.95
2022-08-12T11:31:09.790Z,4.25
2022-08-12T11:34:04.503Z,3.53
2022-08-12T11:36:28.883Z,3.78
2022-08-12T11:38:58.543Z,4.07
2022-08-12T11:41:33.016Z,3.90
2022-08-12T11:44:02.046Z,3.85
2022-08-12T11:46:51.499Z,4.57
2022-08-12T11:49:31.230Z,4.18
2022-08-12T11:52:02.023Z,6.00
2022-08-12T11:54:33.513Z,3.30
2022-08-12T11:58:07.006Z,4.40
2022-08-12T12:02:39.160Z,3.28
2022-08-12T12:05:08.618Z,4.18
2022-08-12T12:08:40.601Z,6.90
2022-08-12T12:10:30.415Z,6.68
2022-08-12T12:12:58.716Z,3.90
2022-08-12T12:15:40.947Z,5.28
2022-08-12T12:18:22.343Z,3.35
2022-08-12T12:21:00.840Z,3.28
2022-08-12T12:23:30.839Z,2.78
2022-08-12T12:26:07.753Z,6.32
2022-08-12T12:28:39.695Z,3.95
2022-08-12T12:31:14.852Z,4.47
2022-08-12T12:33:58.139Z,3.40
2022-08-12T12:36:30.063Z,5.93
2022-08-12T12:39:00.071Z,4.53
2022-08-12T12:42:41.863Z,3.97
2022-08-12T12:44:38.427Z,3.17
2022-08-12T12:47:29.049Z,4.63
2022-08-12T12:49:56.572Z,4.30
2022-08-12T12:52:26.878Z,3.25
2022-08-12T12:54:59.895Z,2.63
2022-08-12T12:57:36.042Z,5.47
2022-08-12T13:00:19.540Z,4.13
2022-08-12T13:02:55.608Z,4.22
2022-08-12T13:05:42.760Z,3.53
2022-08-12T13:08:28.294Z,4.18
2022-08-12T13:11:05.562Z,3.75
2022-08-12T13:14:09.750Z,3.92
2022-08-12T13:16:29.198Z,3.88
2022-08-12T13:18:58.528Z,4.82
2022-08-12T13:21:36.434Z,3.80
2022-08-12T13:24:09.749Z,3.35
2022-08-12T13:26:45.793Z,3.78
2022-08-12T13:29:16.455Z,5.63
2022-08-12T13:31:46.473Z,2.78
2022-08-12T13:34:35.614Z,4.53
2022-08-12T13:37:09.894Z,3.60
2022-08-12T13:39:39.037Z,3.60
2022-08-12T13:42:13.691Z,5.43
2022-08-12T13:44:44.198Z,3.42
2022-08-12T13:47:20.021Z,4.43
2022-08-12T13:49:54.615Z,3.90
2022-08-12T13:52:23.991Z,3.45
2022-08-12T13:54:54.186Z,4.30
2022-08-12T13:57:27.038Z,2.95
2022-08-12T14:00:00.322Z,3.22
2022-08-12T14:02:29.212Z,3.13
2022-08-12T14:04:57.371Z,3.88
2022-08-12T14:07:27.515Z,6.35
2022-08-12T14:10:16.484Z,3.75
2022-08-12T14:12:54.467Z,6.00
2022-08-12T14:15:35.652Z,2.80
2022-08-12T14:18:14.280Z,5.30
2022-08-12T14:20:47.545Z,5.22
2022-08-12T14:24:04.067Z,3.85
2022-08-12T14:26:11.825Z,4.10
2022-08-12T14:28:45.379Z,3.72
2022-08-12T14:31:31.780Z,4.57
2022-08-12T14:34:05.074Z,7.47
2022-08-12T14:36:34.163Z,3.72
2022-08-12T14:39:06.041Z,3.70
2022-08-12T14:41:37.079Z,4.70
2022-08-12T14:44:59.633Z,3.67
2022-08-12T14:47:08.783Z,4.57
2022-08-12T14:50:33.640Z,2.47
2022-08-12T14:53:45.821Z,3.90
2022-08-12T14:58:03.032Z,3.17
2022-08-12T15:00:52.197Z,4.22
2022-08-12T15:03:52.988Z,3.53
2022-08-12T15:06:44.120Z,3.30
2022-08-12T15:09:12.195Z,3.45
2022-08-12T15:11:48.901Z,3.10
2022-08-12T15:16:54.516Z,2.92
2022-08-12T15:20:30.938Z,2.95
2022-08-12T15:22:37.939Z,2.35
2022-08-12T15:25:00.954Z,3.65
2022-08-12T15:28:03.230Z,3.63
2022-08-12T15:30:21.877Z,4.40
2022-08-12T15:32:51.312Z,2.92
2022-08-12T15:35:22.034Z,2.65
2022-08-12T15:38:10.477Z,3.17
2022-08-12T15:40:48.358Z,3.95
2022-08-12T15:43:35.518Z,2.75
2022-08-12T15:46:06.934Z,3.70
2022-08-12T15:48:35.069Z,3.40
2022-08-12T15:51:05.677Z,3.28
2022-08-12T15:53:54.642Z,2.95
2022-08-12T15:56:29.422Z,2.88
2022-08-12T15:58:59.565Z,5.93
2022-08-12T16:01:35.435Z,4.80
2022-08-12T16:04:05.115Z,6.97
2022-08-12T16:07:00.691Z,3.92
2022-08-12T16:09:56.421Z,4.82
2022-08-12T16:12:12.461Z,5.53
2022-08-12T16:14:43.107Z,3.97
2022-08-12T16:17:15.571Z,5.88
2022-08-12T16:20:04.936Z,4.60
2022-08-12T16:22:34.032Z,3.67
2022-08-12T16:25:03.948Z,3.30
2022-08-12T16:27:38.602Z,3.22
2022-08-12T16:30:08.980Z,6.75
2022-08-12T16:32:38.928Z,4.93
2022-08-12T16:35:08.222Z,2.92
2022-08-12T16:38:24.345Z,4.95
2022-08-12T16:40:34.901Z,3.15
2022-08-12T16:43:12.868Z,4.57
2022-08-12T16:46:05.170Z,3.05
2022-08-12T16:48:35.459Z,3.35
2022-08-12T16:51:09.733Z,5.07
2022-08-12T16:53:44.937Z,4.78
2022-08-12T16:56:17.473Z,5.50
2022-08-12T17:01:16.605Z,6.72
2022-08-12T17:04:08.420Z,4.30
2022-08-12T17:06:43.206Z,3.78
2022-08-12T17:09:17.603Z,4.65
2022-08-12T17:11:49.645Z,3.63
2022-08-12T17:14:23.033Z,5.40
2022-08-12T17:16:52.343Z,3.15
2022-08-12T17:19:54.666Z,4.13
2022-08-12T17:22:11.647Z,4.57
2022-08-12T17:24:54.813Z,4.45
2022-08-12T17:27:25.612Z,3.70
2022-08-12T17:30:02.698Z,3.72
2022-08-12T17:32:35.847Z,4.78
2022-08-12T17:35:30.217Z,3.95
2022-08-12T17:38:09.411Z,3.53
2022-08-12T17:40:42.864Z,5.60
2022-08-12T17:43:54.958Z,4.97
2022-08-12T17:46:02.872Z,4.60
2022-08-12T17:48:34.467Z,4.20
2022-08-12T17:51:06.844Z,6.68
2022-08-12T17:54:06.293Z,4.33
2022-08-12T17:56:32.055Z,3.63
2022-08-12T17:59:01.473Z,6.40
2022-08-12T18:01:34.923Z,6.95
2022-08-12T18:04:21.875Z,6.57
2022-08-12T18:06:52.374Z,3.80
2022-08-12T18:09:32.361Z,4.78
2022-08-12T18:12:24.560Z,5.93
2022-08-12T18:14:58.416Z,4.35
2022-08-12T18:17:27.485Z,3.80
2022-08-12T18:20:05.384Z,5.28
2022-08-12T18:22:38.486Z,6.60
2022-08-12T18:26:11.570Z,4.72
2022-08-12T18:28:15.486Z,7.60
2022-08-12T18:30:52.173Z,4.53
2022-08-12T18:33:23.819Z,5.72
2022-08-12T18:35:55.508Z,6.13
2022-08-12T18:38:28.972Z,5.47
2022-08-12T18:41:22.532Z,5.20
2022-08-12T18:44:00.041Z,7.25
2022-08-12T18:46:54.374Z,9.48
2022-08-12T18:49:31.610Z,5.55
2022-08-12T18:52:05.576Z,5.47
2022-08-12T18:57:46.110Z,5.47
2022-08-12T19:00:15.933Z,8.48
2022-08-12T19:02:45.999Z,7.88
2022-08-12T19:05:18.463Z,5.00
2022-08-12T19:08:00.921Z,5.78
2022-08-12T19:10:31.889Z,4.10
2022-08-12T19:13:23.751Z,4.78
2022-08-12T19:15:57.537Z,7.82
2022-08-12T19:18:29.201Z,5.13
2022-08-12T19:20:58.715Z,5.95
2022-08-12T19:23:35.093Z,9.15
2022-08-12T19:26:05.222Z,5.95
2022-08-12T19:28:38.896Z,6.57
2022-08-12T19:31:57.857Z,6.13
2022-08-12T19:37:26.876Z,9.75
2022-08-12T19:40:09.018Z,5.95
2022-08-12T19:42:57.505Z,9.63
2022-08-12T19:45:43.272Z,7.90
2022-08-12T19:48:18.808Z,7.15
2022-08-12T19:50:52.324Z,7.18
2022-08-12T19:53:22.553Z,6.00
2022-08-12T19:55:53.255Z,5.53
2022-08-12T19:58:22.987Z,10.43
2022-08-12T20:00:53.416Z,8.25
2022-08-12T20:03:39.180Z,9.15
2022-08-12T20:06:15.553Z,7.47
2022-08-12T20:08:49.008Z,9.02
2022-08-12T20:12:14.575Z,9.52
2022-08-12T20:14:18.118Z,9.45
2022-08-12T20:16:51.747Z,9.02
2022-08-12T20:19:53.248Z,9.18
2022-08-12T20:22:24.407Z,9.02
2022-08-12T20:25:01.314Z,7.50
2022-08-12T20:30:37.873Z,8.45
2022-08-12T20:33:16.728Z,9.52
2022-08-12T20:36:13.375Z,8.48
2022-08-12T20:38:40.395Z,9.48
2022-08-12T20:41:16.522Z,8.60
2022-08-12T20:43:50.453Z,6.72
2022-08-12T20:46:19.277Z,8.20
2022-08-12T20:48:55.085Z,7.13
2022-08-12T20:51:51.135Z,6.20
2022-08-12T20:54:18.476Z,8.07
2022-08-12T20:56:47.772Z,7.05
2022-08-12T20:59:20.127Z,6.25
2022-08-12T21:01:49.542Z,6.85
2022-08-12T21:07:14.424Z,9.43
2022-08-12T21:09:44.433Z,5.88
2022-08-12T21:12:28.553Z,9.25
2022-08-12T21:15:24.424Z,10.93
2022-08-12T21:18:15.439Z,8.43
2022-08-12T21:20:50.852Z,8.27
2022-08-12T21:23:21.369Z,8.98
2022-08-12T21:25:51.110Z,8.05
2022-08-12T21:28:27.603Z,6.07
2022-08-12T21:32:34.710Z,10.02
2022-08-12T21:34:07.412Z,8.00
2022-08-12T21:36:40.053Z,8.02
2022-08-12T21:39:18.349Z,10.98
2022-08-12T21:41:51.502Z,6.82
2022-08-12T21:44:32.528Z,6.80
2022-08-12T21:47:19.902Z,5.32
2022-08-12T21:49:55.755Z,6.53
2022-08-12T21:52:35.002Z,7.97
2022-08-12T21:55:08.651Z,7.53
2022-08-12T21:57:50.903Z,7.88
2022-08-12T22:00:23.975Z,6.70
2022-08-12T22:04:01.891Z,7.53
2022-08-12T22:06:31.529Z,6.88
2022-08-12T22:09:16.437Z,8.45
2022-08-12T22:11:56.915Z,7.78
2022-08-12T22:14:28.486Z,9.03
2022-08-12T22:16:57.825Z,10.57
2022-08-12T22:19:27.243Z,7.30
2022-08-12T22:21:58.314Z,6.25
2022-08-12T22:24:30.352Z,6.75
2022-08-12T22:27:18.070Z,5.93
2022-08-12T22:30:07.827Z,9.18
2022-08-12T22:32:41.730Z,6.22
2022-08-12T22:35:29.250Z,4.88
2022-08-12T22:38:08.432Z,5.60
2022-08-12T22:40:40.429Z,5.80
2022-08-12T22:46:26.582Z,5.75
2022-08-12T22:48:58.554Z,6.57
2022-08-12T22:51:26.673Z,6.38
2022-08-12T22:53:56.765Z,5.93
2022-08-12T22:56:30.987Z,7.07
2022-08-12T22:59:02.937Z,5.33
2022-08-12T23:01:52.493Z,5.65
2022-08-12T23:04:27.741Z,8.57
2022-08-12T23:07:05.582Z,5.78
2022-08-12T23:09:48.201Z,5.78
2022-08-12T23:12:46.580Z,6.90
2022-08-12T23:15:15.562Z,6.65
2022-08-12T23:17:45.838Z,5.05
2022-08-12T23:20:15.135Z,4.40
2022-08-12T23:22:56.117Z,5.13
2022-08-12T23:25:54.902Z,5.05
2022-08-12T23:28:37.033Z,4.72
2022-08-12T23:31:07.246Z,5.63
2022-08-12T23:34:01.684Z,5.35
2022-08-12T23:36:39.859Z,6.53
2022-08-12T23:40:13.158Z,9.77
2022-08-12T23:42:17.501Z,5.15
2022-08-12T23:44:48.442Z,4.40
2022-08-12T23:47:22.730Z,6.07
2022-08-12T23:49:57.634Z,5.28
2022-08-12T23:52:46.620Z,6.22
2022-08-12T23:55:24.598Z,5.97
2022-08-12T23:58:18.307Z,7.35
